createdAt,value
2022-10-17T00:00:18.382Z,100770.59
2022-10-17T00:02:46.417Z,100769.81
2022-10-17T00:05:14.115Z,100774.12
2022-10-17T00:07:41.756Z,100771.75
2022-10-17T00:10:09.687Z,100769.84
2022-10-17T00:12:37.488Z,100773.91
2022-10-17T00:15:06.674Z,100774.94
2022-10-17T00:17:34.687Z,100772.03
2022-10-17T00:20:02.409Z,100769.06
2022-10-17T00:22:30.184Z,100775.81
2022-10-17T00:24:58.142Z,100781.75
2022-10-17T00:27:26.457Z,100779.06
2022-10-17T00:29:54.503Z,100787.66
2022-10-17T00:32:22.834Z,100779.06
2022-10-17T00:34:50.451Z,100782.53
2022-10-17T00:37:19.338Z,100778.78
2022-10-17T00:39:47.533Z,100779.59
2022-10-17T00:42:15.370Z,100775.31
2022-10-17T00:44:44.660Z,100779.06
2022-10-17T00:47:15.761Z,100778.00
2022-10-17T00:49:43.449Z,100778.81
2022-10-17T00:52:22.462Z,100773.97
2022-10-17T00:54:57.980Z,100775.03
2022-10-17T00:57:27.374Z,100782.84
2022-10-17T00:59:56.543Z,100775.59
2022-10-17T01:02:24.755Z,100778.00
2022-10-17T01:04:53.287Z,100773.19
2022-10-17T01:07:21.266Z,100776.66
2022-10-17T01:09:48.938Z,100776.66
2022-10-17T01:12:24.327Z,100770.50
2022-10-17T01:15:06.298Z,100781.78
2022-10-17T01:17:46.292Z,100769.94
2022-10-17T01:20:26.406Z,100771.56
2022-10-17T01:23:23.193Z,100772.87
2022-10-17T01:26:03.302Z,100776.37
2022-10-17T01:28:56.641Z,100770.97
2022-10-17T01:32:08.213Z,100773.13
2022-10-17T01:35:16.006Z,100772.06
2022-10-17T01:40:30.077Z,100770.22
2022-10-17T01:43:08.728Z,100771.00
2022-10-17T01:45:53.377Z,100775.59
2022-10-17T01:48:24.573Z,100782.59
2022-10-17T01:50:58.344Z,100785.53
2022-10-17T01:53:37.839Z,100783.91
2022-10-17T01:56:07.256Z,100780.97
2022-10-17T01:58:40.059Z,100778.53
2022-10-17T02:01:09.230Z,100779.63
2022-10-17T02:03:38.757Z,100778.81
2022-10-17T02:06:06.781Z,100773.44
2022-10-17T02:08:42.229Z,100778.81
2022-10-17T02:11:30.426Z,100772.37
2022-10-17T02:14:52.051Z,100772.09
2022-10-17T02:17:32.908Z,100779.09
2022-10-17T02:20:02.946Z,100783.13
2022-10-17T02:23:04.537Z,100785.00
2022-10-17T02:25:42.734Z,100777.75
2022-10-17T02:28:39.626Z,100780.16
2022-10-17T02:31:13.733Z,100787.44
2022-10-17T02:33:49.103Z,100788.22
2022-10-17T02:36:21.603Z,100791.72
2022-10-17T02:38:51.108Z,100786.34
2022-10-17T02:41:19.594Z,100790.63
2022-10-17T02:43:48.458Z,100787.97
2022-10-17T02:46:18.928Z,100790.91
2022-10-17T02:48:53.622Z,100792.78
2022-10-17T02:51:44.976Z,100798.97
2022-10-17T02:54:20.552Z,100797.91
2022-10-17T02:56:57.715Z,100803.53
2022-10-17T02:59:27.485Z,100804.59
2022-10-17T03:01:55.493Z,100809.44
2022-10-17T03:04:23.175Z,100809.19
2022-10-17T03:06:51.059Z,100806.75
2022-10-17T03:09:19.015Z,100800.84
2022-10-17T03:11:46.655Z,100808.88
2022-10-17T03:14:14.570Z,100807.53
2022-10-17T03:16:42.691Z,100812.94
2022-10-17T03:19:10.360Z,100804.06
2022-10-17T03:21:38.540Z,100810.22
2022-10-17T03:24:07.265Z,100812.09
2022-10-17T03:26:34.978Z,100811.03
2022-10-17T03:29:03.589Z,100814.78
2022-10-17T03:31:31.420Z,100819.87
2022-10-17T03:33:59.273Z,100820.16
2022-10-17T03:36:27.386Z,100830.09
2022-10-17T03:38:55.532Z,100834.38
2022-10-17T03:41:23.420Z,100832.72
2022-10-17T03:43:52.935Z,100835.47
2022-10-17T03:46:20.868Z,100833.84
2022-10-17T03:48:48.670Z,100837.28
2022-10-17T03:51:17.094Z,100848.84
2022-10-17T03:53:45.085Z,100838.41
2022-10-17T03:56:15.047Z,100837.88
2022-10-17T03:58:46.530Z,100845.38
2022-10-17T04:01:16.107Z,100848.88
2022-10-17T04:03:44.581Z,100851.31
2022-10-17T04:06:12.876Z,100844.06
2022-10-17T04:08:41.251Z,100853.19
2022-10-17T04:11:16.698Z,100845.38
2022-10-17T04:13:45.440Z,100853.19
2022-10-17T04:16:16.342Z,100847.81
2022-10-17T04:18:45.578Z,100854.53
2022-10-17T04:21:13.719Z,100852.62
2022-10-17T04:23:41.359Z,100853.19
2022-10-17T04:26:09.459Z,100857.22
2022-10-17T04:31:12.356Z,100870.56
2022-10-17T04:33:41.283Z,100870.91
2022-10-17T04:36:14.629Z,100878.38
2022-10-17T04:38:43.671Z,100877.06
2022-10-17T04:41:13.567Z,100884.53
2022-10-17T04:43:43.426Z,100880.97
2022-10-17T04:46:14.190Z,100891.78
2022-10-17T04:48:42.097Z,100883.72
2022-10-17T04:51:13.565Z,100884.16
2022-10-17T04:53:42.779Z,100879.59
2022-10-17T04:56:12.993Z,100885.75
2022-10-17T04:58:41.494Z,100893.00
2022-10-17T05:01:12.385Z,100896.22
2022-10-17T05:03:41.742Z,100903.44
2022-10-17T05:06:12.434Z,100895.47
2022-10-17T05:08:40.875Z,100901.84
2022-10-17T05:11:20.712Z,100891.94
2022-10-17T05:13:57.413Z,100895.97
2022-10-17T05:16:25.764Z,100897.66
2022-10-17T05:18:56.631Z,100906.53
2022-10-17T05:21:29.504Z,100907.78
2022-10-17T05:23:57.959Z,100902.19
2022-10-17T05:26:26.716Z,100915.94
2022-10-17T05:28:54.360Z,100919.44
2022-10-17T05:31:22.881Z,100917.56
2022-10-17T05:33:50.443Z,100921.31
2022-10-17T05:36:18.957Z,100927.75
2022-10-17T05:38:53.039Z,100930.69
2022-10-17T05:41:20.947Z,100937.44
2022-10-17T05:43:48.982Z,100936.88
2022-10-17T05:46:17.659Z,100944.12
2022-10-17T05:48:45.364Z,100944.50
2022-10-17T05:51:13.505Z,100947.41
2022-10-17T05:53:41.892Z,100943.41
2022-10-17T05:56:11.604Z,100953.62
2022-10-17T05:59:00.783Z,100956.31
2022-10-17T06:01:29.032Z,100959.03
2022-10-17T06:03:57.155Z,100958.56
2022-10-17T06:06:25.479Z,100961.78
2022-10-17T06:08:53.364Z,100969.59
2022-10-17T06:11:21.563Z,100979.56
2022-10-17T06:13:49.163Z,100971.81
2022-10-17T06:16:18.088Z,100979.34
2022-10-17T06:18:46.103Z,100986.06
2022-10-17T06:21:15.846Z,100985.34
2022-10-17T06:23:44.380Z,100989.97
2022-10-17T06:26:12.547Z,100990.50
2022-10-17T06:28:40.994Z,100997.22
2022-10-17T06:31:10.838Z,100992.38
2022-10-17T06:33:39.139Z,101003.44
2022-10-17T06:36:08.777Z,101007.22
2022-10-17T06:38:36.487Z,101011.47
2022-10-17T06:41:13.892Z,101013.63
2022-10-17T06:43:43.074Z,101017.44
2022-10-17T06:46:20.689Z,101020.91
2022-10-17T06:48:51.044Z,101025.72
2022-10-17T06:51:19.140Z,101027.03
2022-10-17T06:53:47.518Z,101031.91
2022-10-17T06:56:16.200Z,101031.34
2022-10-17T06:58:44.514Z,101036.69
2022-10-17T07:01:13.590Z,101043.13
2022-10-17T07:03:42.109Z,101035.75
2022-10-17T07:06:10.556Z,101039.78
2022-10-17T07:08:42.638Z,101045.38
2022-10-17T07:11:12.798Z,101043.78
2022-10-17T07:13:40.507Z,101049.66
2022-10-17T07:16:08.987Z,101038.09
2022-10-17T07:18:39.209Z,101041.50
2022-10-17T07:21:08.885Z,101041.38
2022-10-17T07:23:37.364Z,101044.19
2022-10-17T07:26:07.943Z,101047.19
2022-10-17T07:28:37.369Z,101045.72
2022-10-17T07:31:12.886Z,101051.13
2022-10-17T07:33:40.896Z,101051.97
2022-10-17T07:36:09.205Z,101050.00
2022-10-17T07:38:37.137Z,101047.66
2022-10-17T07:41:07.121Z,101049.88
2022-10-17T07:43:35.646Z,101056.22
2022-10-17T07:46:05.233Z,101058.06
2022-10-17T07:48:32.953Z,101055.53
2022-10-17T07:51:08.035Z,101055.53
2022-10-17T07:53:36.782Z,101054.19
2022-10-17T07:56:08.333Z,101059.59
2022-10-17T07:58:37.585Z,101061.25
2022-10-17T08:01:10.720Z,101066.09
2022-10-17T08:03:43.819Z,101066.56
2022-10-17T08:06:11.895Z,101064.81
2022-10-17T08:08:39.643Z,101065.62
2022-10-17T08:11:10.450Z,101070.87
2022-10-17T08:13:38.763Z,101070.72
2022-10-17T08:16:10.065Z,101073.87
2022-10-17T08:18:39.696Z,101079.19
2022-10-17T08:21:07.918Z,101070.91
2022-10-17T08:23:36.372Z,101081.22
2022-10-17T08:26:06.087Z,101069.84
2022-10-17T08:28:39.409Z,101085.53
2022-10-17T08:31:12.254Z,101089.09
2022-10-17T08:33:41.075Z,101086.12
2022-10-17T08:36:09.379Z,101087.78
2022-10-17T08:38:38.469Z,101082.34
2022-10-17T08:41:57.800Z,101083.19
2022-10-17T08:44:34.233Z,101080.31
2022-10-17T08:47:04.370Z,101076.91
2022-10-17T08:49:59.019Z,101075.38
2022-10-17T08:52:47.601Z,101082.03
2022-10-17T08:55:43.002Z,101071.31
2022-10-17T08:58:32.652Z,101077.81
2022-10-17T09:01:12.880Z,101070.81
2022-10-17T09:03:57.880Z,101073.91
2022-10-17T09:06:29.104Z,101079.44
2022-10-17T09:09:20.513Z,101074.97
2022-10-17T09:11:59.925Z,101075.00
2022-10-17T09:15:10.705Z,101080.72
2022-10-17T09:17:48.180Z,101076.91
2022-10-17T09:20:19.632Z,101080.06
2022-10-17T09:25:28.537Z,101073.03
2022-10-17T09:28:25.370Z,101076.78
2022-10-17T09:30:57.102Z,101074.88
2022-10-17T09:33:35.862Z,101074.37
2022-10-17T09:36:21.691Z,101073.53
2022-10-17T09:39:04.652Z,101070.84
2022-10-17T09:44:25.695Z,101074.09
2022-10-17T09:46:56.818Z,101067.22
2022-10-17T09:49:36.349Z,101077.97
2022-10-17T09:52:07.158Z,101081.34
2022-10-17T09:54:49.669Z,101078.41
2022-10-17T09:57:19.003Z,101072.41
2022-10-17T09:59:55.716Z,101071.31
2022-10-17T10:02:25.442Z,101078.50
2022-10-17T10:05:15.948Z,101070.44
2022-10-17T10:07:59.050Z,101078.03
2022-10-17T10:10:28.742Z,101070.78
2022-10-17T10:13:03.861Z,101074.84
2022-10-17T10:15:35.346Z,101075.13
2022-10-17T10:18:03.501Z,101077.78
2022-10-17T10:20:36.867Z,101075.72
2022-10-17T10:23:15.654Z,101074.59
2022-10-17T10:26:20.957Z,101072.62
2022-10-17T10:29:00.435Z,101074.63
2022-10-17T10:31:34.729Z,101069.75
2022-10-17T10:34:21.523Z,101068.56
2022-10-17T10:37:01.009Z,101065.44
2022-10-17T10:39:31.289Z,101058.44
2022-10-17T10:42:01.434Z,101060.25
2022-10-17T10:44:32.367Z,101063.00
2022-10-17T10:47:07.815Z,101056.94
2022-10-17T10:49:36.623Z,101055.59
2022-10-17T10:52:05.523Z,101058.50
2022-10-17T10:54:37.103Z,101056.84
2022-10-17T10:57:08.846Z,101052.56
2022-10-17T10:59:41.204Z,101047.97
2022-10-17T11:02:50.101Z,101043.34
2022-10-17T11:05:23.640Z,101043.84
2022-10-17T11:08:02.280Z,101037.59
2022-10-17T11:10:41.824Z,101038.38
2022-10-17T11:13:23.869Z,101044.31
2022-10-17T11:15:56.636Z,101041.75
2022-10-17T11:18:28.725Z,101035.94
2022-10-17T11:21:15.354Z,101029.03
2022-10-17T11:23:47.501Z,101040.25
2022-10-17T11:26:23.592Z,101039.69
2022-10-17T11:28:53.520Z,101023.50
2022-10-17T11:31:23.052Z,101032.09
2022-10-17T11:34:04.120Z,101025.12
2022-10-17T11:36:35.087Z,101016.37
2022-10-17T11:39:14.146Z,101021.50
2022-10-17T11:41:49.408Z,101018.53
2022-10-17T11:44:31.953Z,101017.84
2022-10-17T11:47:26.508Z,101011.91
2022-10-17T11:53:15.868Z,101017.16
2022-10-17T11:55:44.573Z,101007.13
2022-10-17T11:58:22.541Z,101005.19
2022-10-17T12:00:59.788Z,101004.62
2022-10-17T12:03:46.567Z,101010.56
2022-10-17T12:06:29.544Z,101002.47
2022-10-17T12:09:28.491Z,101002.97
2022-10-17T12:11:59.303Z,101002.66
2022-10-17T12:14:35.302Z,101013.53
2022-10-17T12:17:03.697Z,101005.53
2022-10-17T12:19:36.822Z,101007.78
2022-10-17T12:22:20.955Z,101007.22
2022-10-17T12:24:58.612Z,100989.53
2022-10-17T12:27:39.482Z,100993.06
2022-10-17T12:30:27.030Z,100981.44
2022-10-17T12:33:24.534Z,100983.63
2022-10-17T12:36:12.345Z,100981.94
2022-10-17T12:38:40.669Z,100978.03
2022-10-17T12:41:08.568Z,100984.25
2022-10-17T12:43:44.766Z,100978.69
2022-10-17T12:46:34.622Z,100977.44
2022-10-17T12:49:04.162Z,100984.50
2022-10-17T12:52:15.360Z,100978.91
2022-10-17T12:55:00.564Z,100982.22
2022-10-17T12:58:03.653Z,100984.06
2022-10-17T13:00:43.829Z,100975.25
2022-10-17T13:03:22.911Z,100980.63
2022-10-17T13:06:00.724Z,100973.00
2022-10-17T13:08:35.996Z,100975.31
2022-10-17T13:11:04.259Z,100971.09
2022-10-17T13:13:46.996Z,100970.25
2022-10-17T13:16:34.318Z,100970.13
2022-10-17T13:19:05.086Z,100970.03
2022-10-17T13:21:32.749Z,100964.72
2022-10-17T13:24:00.422Z,100957.50
2022-10-17T13:26:29.012Z,100957.84
2022-10-17T13:29:10.876Z,100962.97
2022-10-17T13:31:41.145Z,100961.38
2022-10-17T13:34:19.813Z,100956.13
2022-10-17T13:36:52.818Z,100959.78
2022-10-17T13:39:38.303Z,100960.34
2022-10-17T13:42:07.499Z,100960.69
2022-10-17T13:44:37.738Z,100963.69
2022-10-17T13:47:06.591Z,100962.87
2022-10-17T13:49:42.965Z,100953.84
2022-10-17T13:52:19.188Z,100953.97
2022-10-17T13:54:49.421Z,100952.41
2022-10-17T13:57:20.416Z,100950.03
2022-10-17T13:59:51.348Z,100955.25
2022-10-17T14:02:25.366Z,100949.41
2022-10-17T14:05:17.864Z,100948.06
2022-10-17T14:08:10.813Z,100947.00
2022-10-17T14:10:39.120Z,100953.13
2022-10-17T14:13:07.932Z,100948.53
2022-10-17T14:15:45.735Z,100955.09
2022-10-17T14:18:17.588Z,100947.31
2022-10-17T14:21:31.719Z,100949.28
2022-10-17T14:23:38.858Z,100949.84
2022-10-17T14:26:19.678Z,100949.97
2022-10-17T14:29:03.139Z,100942.63
2022-10-17T14:31:33.178Z,100937.81
2022-10-17T14:34:02.959Z,100943.41
2022-10-17T14:36:36.252Z,100942.03
2022-10-17T14:39:08.566Z,100944.19
2022-10-17T14:41:44.141Z,100944.81
2022-10-17T14:44:38.308Z,100941.13
2022-10-17T14:47:30.844Z,100940.22
2022-10-17T14:50:28.503Z,100942.72
2022-10-17T14:53:06.808Z,100934.81
2022-10-17T14:55:35.754Z,100941.53
2022-10-17T14:58:17.192Z,100942.47
2022-10-17T15:00:45.566Z,100948.81
2022-10-17T15:03:13.183Z,100947.25
2022-10-17T15:05:41.125Z,100948.22
2022-10-17T15:08:13.728Z,100939.94
2022-10-17T15:10:41.864Z,100945.34
2022-10-17T15:13:27.211Z,100945.97
2022-10-17T15:15:55.618Z,100936.72
2022-10-17T15:18:23.624Z,100934.97
2022-10-17T15:20:59.554Z,100942.03
2022-10-17T15:23:33.044Z,100938.00
2022-10-17T15:26:01.352Z,100941.87
2022-10-17T15:28:29.424Z,100943.78
2022-10-17T15:30:57.518Z,100951.16
2022-10-17T15:33:25.285Z,100949.56
2022-10-17T15:35:52.983Z,100949.75
2022-10-17T15:38:22.240Z,100955.81
2022-10-17T15:40:49.921Z,100960.13
2022-10-17T15:43:20.061Z,100960.25
2022-10-17T15:45:48.523Z,100961.81
2022-10-17T15:48:19.954Z,100961.59
2022-10-17T15:50:47.861Z,100958.25
2022-10-17T15:53:15.492Z,100964.91
2022-10-17T15:55:43.125Z,100964.81
2022-10-17T15:58:15.470Z,100968.13
2022-10-17T16:00:43.507Z,100973.59
2022-10-17T16:03:11.561Z,100968.56
2022-10-17T16:05:39.389Z,100969.63
2022-10-17T16:08:07.089Z,100973.31
2022-10-17T16:10:41.473Z,100973.38
2022-10-17T16:13:17.468Z,100983.25
2022-10-17T16:15:46.676Z,100984.09
2022-10-17T16:18:14.469Z,100980.59
2022-10-17T16:20:42.256Z,100979.28
2022-10-17T16:23:12.366Z,100987.84
2022-10-17T16:25:40.294Z,100985.63
2022-10-17T16:28:08.005Z,100989.56
2022-10-17T16:30:42.205Z,100985.13
2022-10-17T16:33:10.307Z,100989.56
2022-10-17T16:35:38.712Z,100987.66
2022-10-17T16:38:07.305Z,100979.91
2022-10-17T16:40:38.268Z,100989.63
2022-10-17T16:43:06.720Z,100990.53
2022-10-17T16:45:34.351Z,100988.72
2022-10-17T16:48:02.389Z,100987.44
2022-10-17T16:50:30.394Z,100988.91
2022-10-17T16:52:58.275Z,100993.44
2022-10-17T16:55:26.061Z,100988.03
2022-10-17T16:57:53.988Z,100992.50
2022-10-17T17:00:21.676Z,100987.69
2022-10-17T17:02:51.418Z,100996.06
2022-10-17T17:05:19.339Z,101004.50
2022-10-17T17:07:46.939Z,101006.34
2022-10-17T17:10:16.904Z,101004.06
2022-10-17T17:12:44.844Z,101008.66
2022-10-17T17:15:12.567Z,101002.03
2022-10-17T17:17:56.309Z,101002.94
2022-10-17T17:20:25.364Z,101009.44
2022-10-17T17:22:52.989Z,101004.25
2022-10-17T17:25:21.930Z,101008.34
2022-10-17T17:27:49.987Z,101012.72
2022-10-17T17:30:18.543Z,101012.72
2022-10-17T17:32:46.210Z,101012.03
2022-10-17T17:35:14.155Z,101013.94
2022-10-17T17:37:41.811Z,101014.09
2022-10-17T17:40:12.187Z,101014.47
2022-10-17T17:42:40.215Z,101012.84
2022-10-17T17:45:08.446Z,101016.66
2022-10-17T17:47:36.135Z,101017.06
2022-10-17T17:50:04.764Z,101010.41
2022-10-17T17:52:32.766Z,101007.47
2022-10-17T17:55:00.744Z,101007.75
2022-10-17T17:57:29.619Z,101005.31
2022-10-17T17:59:57.355Z,101006.19
2022-10-17T18:02:24.911Z,101004.06
2022-10-17T18:04:53.076Z,101000.78
2022-10-17T18:07:20.732Z,100998.72
2022-10-17T18:09:48.908Z,100998.19
2022-10-17T18:12:17.040Z,100995.28
2022-10-17T18:14:44.760Z,100999.28
2022-10-17T18:17:12.488Z,100996.75
2022-10-17T18:19:40.806Z,101009.00
2022-10-17T18:22:08.761Z,101000.44
2022-10-17T18:24:37.224Z,101003.97
2022-10-17T18:27:05.166Z,101006.37
2022-10-17T18:29:32.806Z,100998.09
2022-10-17T18:32:00.490Z,101004.81
2022-10-17T18:34:28.529Z,101009.94
2022-10-17T18:36:56.296Z,100994.88
2022-10-17T18:39:24.276Z,100996.31
2022-10-17T18:41:52.240Z,100999.47
2022-10-17T18:44:19.857Z,101000.06
2022-10-17T18:46:47.445Z,100999.78
2022-10-17T18:49:17.065Z,100997.94
2022-10-17T18:51:45.469Z,101002.53
2022-10-17T18:54:15.793Z,100995.81
2022-10-17T18:56:43.647Z,100997.62
2022-10-17T18:59:11.438Z,101003.34
2022-10-17T19:01:39.052Z,100999.56
2022-10-17T19:04:07.005Z,101003.19
2022-10-17T19:06:34.868Z,101000.47
2022-10-17T19:09:04.622Z,100990.47
2022-10-17T19:11:34.425Z,100993.75
2022-10-17T19:14:05.053Z,100994.28
2022-10-17T19:16:35.382Z,100994.91
2022-10-17T19:19:06.095Z,100988.47
2022-10-17T19:21:34.249Z,100997.88
2022-10-17T19:24:03.914Z,100992.09
2022-10-17T19:26:33.022Z,100991.62
2022-10-17T19:29:01.133Z,100993.53
2022-10-17T19:31:29.999Z,100986.31
2022-10-17T19:33:57.989Z,100985.25
2022-10-17T19:36:32.266Z,100987.66
2022-10-17T19:39:03.431Z,100991.41
2022-10-17T19:41:31.682Z,100986.81
2022-10-17T19:44:02.721Z,100990.06
2022-10-17T19:46:31.955Z,100987.69
2022-10-17T19:49:00.354Z,100992.28
2022-10-17T19:51:28.277Z,100987.22
2022-10-17T19:53:57.717Z,100984.50
2022-10-17T19:56:26.613Z,100981.75
2022-10-17T19:58:54.455Z,100983.13
2022-10-17T20:01:24.774Z,100982.91
2022-10-17T20:03:53.449Z,100990.75
2022-10-17T20:06:21.486Z,100995.44
2022-10-17T20:08:49.818Z,100987.84
2022-10-17T20:11:20.512Z,100984.84
2022-10-17T20:13:48.577Z,100989.16
2022-10-17T20:16:19.211Z,100988.53
2022-10-17T20:18:48.433Z,100980.72
2022-10-17T20:21:18.993Z,100979.41
2022-10-17T20:23:46.914Z,100988.12
2022-10-17T20:29:13.382Z,100989.78
2022-10-17T20:31:42.870Z,100990.41
2022-10-17T20:34:13.567Z,100989.84
2022-10-17T20:36:41.314Z,100985.06
2022-10-17T20:39:11.230Z,100991.25
2022-10-17T20:41:39.508Z,100992.63
2022-10-17T20:44:07.483Z,100987.53
2022-10-17T20:46:37.586Z,100984.34
2022-10-17T20:49:07.661Z,100983.28
2022-10-17T20:51:35.805Z,100986.56
2022-10-17T20:54:03.815Z,100992.25
2022-10-17T20:56:33.594Z,100994.41
2022-10-17T20:59:03.524Z,100995.22
2022-10-17T21:01:32.753Z,100989.34
2022-10-17T21:04:20.698Z,100985.84
2022-10-17T21:06:48.893Z,100989.37
2022-10-17T21:09:16.805Z,100982.91
2022-10-17T21:11:44.374Z,100983.19
2022-10-17T21:14:12.397Z,100979.94
2022-10-17T21:16:40.034Z,100981.81
2022-10-17T21:19:07.637Z,100979.94
2022-10-17T21:21:38.200Z,100980.50
2022-10-17T21:24:12.216Z,100981.28
2022-10-17T21:26:41.172Z,100982.72
2022-10-17T21:29:09.998Z,100979.94
2022-10-17T21:31:39.483Z,100977.84
2022-10-17T21:34:16.394Z,100981.63
2022-10-17T21:36:44.761Z,100975.44
2022-10-17T21:39:13.836Z,100986.22
2022-10-17T21:41:42.290Z,100972.75
2022-10-17T21:44:18.704Z,100978.44
2022-10-17T21:46:47.118Z,100980.06
2022-10-17T21:49:17.268Z,100971.97
2022-10-17T21:51:45.393Z,100972.25
2022-10-17T21:54:14.690Z,100972.53
2022-10-17T21:56:42.554Z,100972.28
2022-10-17T21:59:10.388Z,100981.72
2022-10-17T22:01:40.829Z,100972.53
2022-10-17T22:04:12.430Z,100975.78
2022-10-17T22:06:41.481Z,100975.00
2022-10-17T22:09:14.568Z,100975.25
2022-10-17T22:11:44.960Z,100970.91
2022-10-17T22:14:15.664Z,100968.78
2022-10-17T22:16:43.623Z,100967.47
2022-10-17T22:19:12.550Z,100966.69
2022-10-17T22:21:40.575Z,100960.22
2022-10-17T22:24:10.379Z,100961.28
2022-10-17T22:26:38.258Z,100957.00
2022-10-17T22:29:07.869Z,100963.16
2022-10-17T22:31:36.802Z,100961.00
2022-10-17T22:34:05.607Z,100953.19
2022-10-17T22:36:34.570Z,100957.56
2022-10-17T22:39:02.584Z,100955.44
2022-10-17T22:41:30.159Z,100953.56
2022-10-17T22:43:58.051Z,100950.88
2022-10-17T22:46:26.027Z,100953.03
2022-10-17T22:48:53.750Z,100954.09
2022-10-17T22:51:21.817Z,100959.25
2022-10-17T22:53:49.434Z,100958.19
2022-10-17T22:56:19.118Z,100957.38
2022-10-17T22:58:47.022Z,100965.72
2022-10-17T23:01:17.544Z,100959.28
2022-10-17T23:03:45.673Z,100960.62
2022-10-17T23:06:13.564Z,100957.66
2022-10-17T23:08:41.371Z,100957.66
2022-10-17T23:11:09.472Z,100957.91
2022-10-17T23:13:37.424Z,100954.16
2022-10-17T23:16:05.021Z,100954.72
2022-10-17T23:18:33.190Z,100948.25
2022-10-17T23:21:01.108Z,100949.34
2022-10-17T23:23:28.855Z,100947.44
2022-10-17T23:26:05.249Z,100940.97
2022-10-17T23:28:33.954Z,100943.41
2022-10-17T23:31:18.765Z,100938.31
2022-10-17T23:33:48.441Z,100939.63
2022-10-17T23:36:18.469Z,100937.50
2022-10-17T23:38:47.357Z,100932.37
2022-10-17T23:41:15.204Z,100929.41
2022-10-17T23:43:43.534Z,100935.59
2022-10-17T23:46:11.701Z,100929.41
2022-10-17T23:48:40.012Z,100934.53
2022-10-17T23:51:08.759Z,100924.84
2022-10-17T23:53:37.983Z,100927.47
2022-10-17T23:56:06.891Z,100921.28
2022-10-17T23:58:34.863Z,100927.47
